createdAt,value
2022-08-14T00:04:02.104Z,100459.04
2022-08-14T00:09:28.099Z,100450.59
2022-08-14T00:14:37.498Z,100445.73
2022-08-14T00:19:44.415Z,100440.33
2022-08-14T00:24:52.336Z,100437.71
2022-08-14T00:29:58.323Z,100429.55
2022-08-14T00:35:06.679Z,100424.43
2022-08-14T00:40:33.573Z,100422.87
2022-08-14T00:45:42.057Z,100416.20
2022-08-14T00:50:48.464Z,100411.08
2022-08-14T00:55:56.597Z,100407.54
2022-08-14T01:01:08.153Z,100406.00
2022-08-14T01:06:18.471Z,100400.48
2022-08-14T01:11:25.413Z,100396.25
2022-08-14T01:16:38.029Z,100396.59
2022-08-14T01:21:47.342Z,100389.77
2022-08-14T01:27:00.737Z,100389.26
2022-08-14T01:32:10.579Z,100395.39
2022-08-14T01:37:16.586Z,100386.29
2022-08-14T01:42:31.840Z,100383.61
2022-08-14T01:47:42.022Z,100392.83
2022-08-14T01:52:59.174Z,100399.14
2022-08-14T01:58:19.427Z,100403.33
2022-08-14T02:03:30.861Z,100410.39
2022-08-14T02:08:38.216Z,100411.67
2022-08-14T02:14:07.054Z,100410.77
2022-08-14T02:19:16.546Z,100406.69
2022-08-14T02:24:39.725Z,100407.64
2022-08-14T02:29:59.560Z,100403.48
2022-08-14T02:35:13.723Z,100396.73
2022-08-14T02:40:32.452Z,100389.29
2022-08-14T02:45:44.341Z,100385.55
2022-08-14T02:50:51.630Z,100381.48
2022-08-14T02:56:03.235Z,100377.44
2022-08-14T03:01:18.337Z,100385.75
2022-08-14T03:06:48.887Z,100381.38
2022-08-14T03:11:52.253Z,100376.15
2022-08-14T03:16:59.511Z,100365.73
2022-08-14T03:22:09.379Z,100358.09
2022-08-14T03:27:26.588Z,100363.29
2022-08-14T03:32:43.764Z,100364.17
2022-08-14T03:39:16.158Z,100360.70
2022-08-14T03:43:18.771Z,100355.39
2022-08-14T03:48:30.077Z,100355.52
2022-08-14T03:53:38.512Z,100353.02
2022-08-14T03:58:46.269Z,100351.16
2022-08-14T04:03:57.714Z,100349.33
2022-08-14T04:09:04.345Z,100346.51
2022-08-14T04:14:15.184Z,100351.33
2022-08-14T04:19:24.036Z,100360.00
2022-08-14T04:24:30.819Z,100354.48
2022-08-14T04:29:45.346Z,100356.02
2022-08-14T04:34:52.188Z,100363.37
2022-08-14T04:40:17.510Z,100372.36
2022-08-14T04:45:24.985Z,100381.22
2022-08-14T04:50:43.475Z,100379.48
2022-08-14T04:55:51.997Z,100380.35
2022-08-14T05:00:59.891Z,100379.76
2022-08-14T05:06:07.808Z,100376.39
2022-08-14T05:11:36.734Z,100377.39
2022-08-14T05:16:46.607Z,100376.98
2022-08-14T05:22:15.952Z,100372.94
2022-08-14T05:27:24.118Z,100369.94
2022-08-14T05:32:30.234Z,100366.77
2022-08-14T05:37:36.070Z,100366.54
2022-08-14T05:42:41.973Z,100370.71
2022-08-14T05:47:52.742Z,100367.62
2022-08-14T05:52:59.625Z,100369.25
2022-08-14T05:58:08.409Z,100364.31
2022-08-14T06:03:16.832Z,100361.13
2022-08-14T06:08:41.329Z,100361.25
2022-08-14T06:13:47.983Z,100362.04
2022-08-14T06:18:54.812Z,100355.99
2022-08-14T06:24:10.599Z,100354.73
2022-08-14T06:29:25.197Z,100356.89
2022-08-14T06:35:03.922Z,100352.03
2022-08-14T06:39:57.298Z,100355.44
2022-08-14T06:45:04.078Z,100363.61
2022-08-14T06:50:14.388Z,100361.67
2022-08-14T06:55:25.934Z,100358.09
2022-08-14T07:00:34.476Z,100360.46
2022-08-14T07:05:55.886Z,100361.69
2022-08-14T07:11:04.666Z,100358.55
2022-08-14T07:16:13.106Z,100358.11
2022-08-14T07:21:20.021Z,100357.95
2022-08-14T07:26:25.868Z,100354.39
2022-08-14T07:31:35.999Z,100355.11
2022-08-14T07:36:53.745Z,100358.24
2022-08-14T07:42:04.782Z,100353.52
2022-08-14T07:47:10.927Z,100355.70
2022-08-14T07:52:22.025Z,100352.00
2022-08-14T07:57:28.561Z,100348.23
2022-08-14T08:02:35.401Z,100344.27
2022-08-14T08:07:48.094Z,100341.07
2022-08-14T08:12:56.997Z,100339.12
2022-08-14T08:18:04.944Z,100343.42
2022-08-14T08:23:12.337Z,100338.84
2022-08-14T08:28:28.109Z,100339.64
2022-08-14T08:33:37.232Z,100344.30
2022-08-14T08:39:18.620Z,100335.78
2022-08-14T08:44:31.173Z,100338.39
2022-08-14T08:49:48.722Z,100345.12
2022-08-14T08:55:06.567Z,100332.73
2022-08-14T09:00:25.477Z,100334.41
2022-08-14T09:05:34.354Z,100337.70
2022-08-14T09:10:40.210Z,100334.09
2022-08-14T09:15:49.850Z,100333.92
2022-08-14T09:20:58.572Z,100328.77
2022-08-14T09:26:05.157Z,100327.44
2022-08-14T09:31:43.090Z,100332.19
2022-08-14T09:37:17.265Z,100327.66
2022-08-14T09:42:50.207Z,100321.14
2022-08-14T09:47:58.492Z,100322.13
2022-08-14T09:53:10.486Z,100316.94
2022-08-14T09:58:24.672Z,100315.20
2022-08-14T10:03:36.311Z,100307.17
2022-08-14T10:08:50.906Z,100303.14
2022-08-14T10:14:02.466Z,100295.65
2022-08-14T10:19:10.746Z,100287.42
2022-08-14T10:24:36.435Z,100284.59
2022-08-14T10:29:47.690Z,100288.69
2022-08-14T10:35:04.023Z,100290.31
2022-08-14T10:40:37.789Z,100279.45
2022-08-14T10:45:46.370Z,100280.57
2022-08-14T10:50:59.804Z,100272.95
2022-08-14T10:56:22.025Z,100273.52
2022-08-14T11:01:43.141Z,100269.41
2022-08-14T11:06:56.717Z,100266.91
2022-08-14T11:12:34.865Z,100265.11
2022-08-14T11:17:31.752Z,100260.04
2022-08-14T11:23:02.913Z,100253.03
2022-08-14T11:28:11.075Z,100258.30
2022-08-14T11:33:25.467Z,100247.92
2022-08-14T11:38:38.133Z,100246.42
2022-08-14T11:43:58.243Z,100243.12
2022-08-14T11:49:06.674Z,100240.61
2022-08-14T11:54:15.455Z,100241.34
2022-08-14T11:59:30.934Z,100240.91
2022-08-14T12:04:50.776Z,100236.51
2022-08-14T12:09:58.704Z,100229.19
2022-08-14T12:15:07.131Z,100224.66
2022-08-14T12:20:14.961Z,100218.19
2022-08-14T12:25:45.202Z,100219.23
2022-08-14T12:31:20.473Z,100221.61
2022-08-14T12:36:31.078Z,100222.19
2022-08-14T12:41:38.258Z,100224.06
2022-08-14T12:46:46.856Z,100217.65
2022-08-14T12:52:00.053Z,100213.92
2022-08-14T12:57:08.459Z,100200.29
2022-08-14T13:02:25.991Z,100191.06
2022-08-14T13:07:33.297Z,100181.15
2022-08-14T13:12:56.797Z,100171.23
2022-08-14T13:18:08.479Z,100156.43
2022-08-14T13:23:14.878Z,100146.59
2022-08-14T13:28:33.140Z,100147.61
2022-08-14T13:33:41.357Z,100137.79
2022-08-14T13:38:50.183Z,100140.14
2022-08-14T13:44:00.026Z,100144.93
2022-08-14T13:49:12.036Z,100150.05
2022-08-14T13:54:23.150Z,100145.34
2022-08-14T13:59:37.784Z,100140.98
2022-08-14T14:04:49.510Z,100132.48
2022-08-14T14:09:58.608Z,100116.94
2022-08-14T14:15:07.064Z,100114.02
2022-08-14T14:20:35.755Z,100119.64
2022-08-14T14:25:51.454Z,100118.76
2022-08-14T14:31:06.128Z,100104.02
2022-08-14T14:36:20.936Z,100100.41
2022-08-14T14:41:37.363Z,100104.38
2022-08-14T14:46:51.016Z,100109.73
2022-08-14T14:51:59.066Z,100112.73
2022-08-14T14:57:09.394Z,100115.98
2022-08-14T15:02:33.331Z,100115.83
2022-08-14T15:07:40.235Z,100116.96
2022-08-14T15:12:57.924Z,100126.14
2022-08-14T15:18:36.571Z,100124.86
2022-08-14T15:23:44.348Z,100125.73
2022-08-14T15:29:03.088Z,100124.58
2022-08-14T15:34:45.551Z,100118.89
2022-08-14T15:39:38.400Z,100121.48
2022-08-14T15:44:58.498Z,100130.76
2022-08-14T15:50:09.569Z,100144.44
2022-08-14T15:55:16.721Z,100140.13
2022-08-14T16:00:44.135Z,100136.58
2022-08-14T16:05:55.750Z,100137.29
2022-08-14T16:11:05.137Z,100129.95
2022-08-14T16:16:49.604Z,100118.59
2022-08-14T16:22:02.213Z,100122.77
2022-08-14T16:27:11.050Z,100132.05
2022-08-14T16:32:35.745Z,100137.16
2022-08-14T16:37:43.774Z,100141.88
2022-08-14T16:43:04.146Z,100131.16
2022-08-14T16:48:57.107Z,100115.64
2022-08-14T16:53:44.682Z,100105.60
2022-08-14T16:59:09.499Z,100099.22
2022-08-14T17:04:24.670Z,100096.02
2022-08-14T17:09:35.460Z,100095.77
2022-08-14T17:14:54.539Z,100098.84
2022-08-14T17:20:33.889Z,100110.48
2022-08-14T17:25:36.395Z,100116.65
2022-08-14T17:30:54.487Z,100119.02
2022-08-14T17:36:20.867Z,100120.67
2022-08-14T17:41:36.050Z,100119.89
2022-08-14T17:46:50.357Z,100116.02
2022-08-14T17:52:16.977Z,100129.21
2022-08-14T17:57:28.458Z,100132.66
2022-08-14T18:02:35.375Z,100125.14
2022-08-14T18:07:59.571Z,100133.88
2022-08-14T18:13:08.027Z,100183.97
2022-08-14T18:18:16.701Z,100214.77
2022-08-14T18:23:23.030Z,100201.23
2022-08-14T18:28:51.257Z,100186.88
2022-08-14T18:34:06.171Z,100165.05
2022-08-14T18:39:28.288Z,100163.88
2022-08-14T18:45:15.447Z,100157.91
2022-08-14T18:50:27.948Z,100154.05
2022-08-14T18:56:02.127Z,100144.71
2022-08-14T19:01:24.549Z,100147.73
2022-08-14T19:06:44.698Z,100145.75
2022-08-14T19:11:51.544Z,100131.98
2022-08-14T19:16:58.182Z,100121.60
2022-08-14T19:22:12.338Z,100110.83
2022-08-14T19:27:23.510Z,100097.17
2022-08-14T19:32:40.313Z,100085.16
2022-08-14T19:37:52.503Z,100087.83
2022-08-14T19:43:00.806Z,100095.85
2022-08-14T19:48:13.283Z,100096.52
2022-08-14T19:53:20.188Z,100103.86
2022-08-14T19:58:55.137Z,100093.84
2022-08-14T20:04:06.650Z,100091.52
2022-08-14T20:11:08.565Z,100082.81
2022-08-14T20:14:39.714Z,100078.96
2022-08-14T20:19:58.088Z,100074.05
2022-08-14T20:25:18.358Z,100063.17
2022-08-14T20:30:34.019Z,100057.95
2022-08-14T20:35:51.599Z,100049.92
2022-08-14T20:41:00.007Z,100049.55
2022-08-14T20:46:14.809Z,100053.16
2022-08-14T20:51:26.352Z,100053.39
2022-08-14T20:56:44.630Z,100053.30
2022-08-14T21:01:55.366Z,100051.71
2022-08-14T21:07:24.812Z,100062.82
2022-08-14T21:12:34.960Z,100064.29
2022-08-14T21:17:43.136Z,100065.59
2022-08-14T21:22:49.511Z,100074.02
2022-08-14T21:27:57.482Z,100084.61
2022-08-14T21:33:05.326Z,100098.48
2022-08-14T21:38:17.982Z,100110.89
2022-08-14T21:43:26.999Z,100113.62
2022-08-14T21:48:36.535Z,100094.43
2022-08-14T21:53:54.125Z,100089.84
2022-08-14T21:59:09.079Z,100084.88
2022-08-14T22:04:33.201Z,100077.48
2022-08-14T22:09:42.752Z,100065.20
2022-08-14T22:14:49.128Z,100054.42
2022-08-14T22:19:57.049Z,100049.48
2022-08-14T22:25:03.887Z,100041.26
2022-08-14T22:30:15.264Z,100043.45
2022-08-14T22:35:25.133Z,100045.67
2022-08-14T22:41:01.920Z,100040.04
2022-08-14T22:45:57.810Z,100039.31
2022-08-14T22:51:08.464Z,100040.54
2022-08-14T22:56:21.858Z,100048.16
2022-08-14T23:01:57.274Z,100049.88
2022-08-14T23:07:04.707Z,100052.00
2022-08-14T23:12:27.910Z,100052.70
2022-08-14T23:17:40.347Z,100054.56
2022-08-14T23:22:47.993Z,100054.74
2022-08-14T23:28:03.186Z,100058.52
2022-08-14T23:33:16.372Z,100063.74
2022-08-14T23:38:30.494Z,100058.12
2022-08-14T23:43:39.065Z,100052.42
2022-08-14T23:48:46.635Z,100052.79
2022-08-14T23:53:53.383Z,100048.14
2022-08-14T23:59:01.113Z,100044.01
